BENVENUTI AL 154° GRUPPO VIRTUALE
  • Coppia_Tornado_camo
  • linea_volo_F104G
  • cockpit_view
  • Tornado_grey
  • F84F_decollo
  • F84F_Garda
  • F-14B_coppia
  • F-14B_primopiano
  • F-14B_cockpit
  • Benvenuti al 154° Gruppo Virtuale


    Simulazione, Storia e Passione


  • Benvenuti al 154° Gruppo Virtuale


    Simulazione, Storia e Passione


  • Benvenuti al 154° Gruppo Virtuale


    Simulazione, Storia e Passione


  • Benvenuti al 154° Gruppo Virtuale


    Simulazione, Storia e Passione


  • Benvenuti al 154° Gruppo Virtuale


    Simulazione, Storia e Passione


  • Benvenuti al 154° Gruppo Virtuale


    Simulazione, Storia e Passione


  • Benvenuti al 154° Gruppo Virtuale


    Simulazione, Storia e Passione


  • Benvenuti al 154° Gruppo Virtuale


    Simulazione, Storia e Passione


  • Benvenuti al 154° Gruppo Virtuale


    Simulazione, Storia e Passione


METAR & TAF

[Source: ADDS]
METAR
LIPL 272355Z 35002KT 5000 BR NSC 18/16 Q1019 RMK SKC VIS MIN 5000 WIND THR31 02001KT WIND THR13 35001KT WHT =
LIPL 272300Z 2800/2809 29003KT 5000 BR NSC TEMPO 2800/2806 3000 BR BECMG 2806/2809 CAVOK
TAF
LIPL 272300Z 2800/2809 29003KT 5000 BR NSC TEMPO 2800/2806 3000 BR BECMG 2806/2809 CAVOK =

Notice: Undefined index: sun in /web/htdocs/www.154gruppovirtuale.it/home/modules/mod_wx/tmpl/default.php on line 13

Simulation Platform